createdAt,value
2022-09-11T00:02:23.288Z,99353.34
2022-09-11T00:04:50.999Z,99355.03
2022-09-11T00:07:18.207Z,99353.34
2022-09-11T00:09:45.418Z,99355.03
2022-09-11T00:12:12.853Z,99352.87
2022-09-11T00:14:40.755Z,99352.87
2022-09-11T00:17:07.915Z,99350.53
2022-09-11T00:19:36.362Z,99342.59
2022-09-11T00:22:03.563Z,99337.44
2022-09-11T00:24:30.801Z,99332.19
2022-09-11T00:26:58.269Z,99336.91
2022-09-11T00:29:25.597Z,99332.78
2022-09-11T00:31:52.917Z,99328.19
2022-09-11T00:34:20.430Z,99331.53
2022-09-11T00:36:48.401Z,99335.00
2022-09-11T00:39:15.740Z,99335.22
2022-09-11T00:41:44.808Z,99332.44
2022-09-11T00:44:12.460Z,99338.19
2022-09-11T00:46:49.208Z,99330.78
2022-09-11T00:49:30.580Z,99335.12
2022-09-11T00:51:58.601Z,99334.00
2022-09-11T00:54:31.070Z,99339.91
2022-09-11T00:56:58.851Z,99338.41
2022-09-11T00:59:27.040Z,99338.44
2022-09-11T01:01:54.321Z,99345.72
2022-09-11T01:04:21.921Z,99335.69
2022-09-11T01:06:56.575Z,99342.84
2022-09-11T01:09:24.750Z,99339.53
2022-09-11T01:11:58.553Z,99333.72
2022-09-11T01:14:33.681Z,99338.25
2022-09-11T01:17:20.653Z,99322.31
2022-09-11T01:20:06.677Z,99321.09
2022-09-11T01:22:49.995Z,99318.53
2022-09-11T01:25:28.371Z,99319.84
2022-09-11T01:28:00.863Z,99318.53
2022-09-11T01:30:29.204Z,99317.53
2022-09-11T01:33:00.661Z,99323.78
2022-09-11T01:35:31.705Z,99318.59
2022-09-11T01:38:07.050Z,99315.00
2022-09-11T01:40:40.727Z,99305.63
2022-09-11T01:43:13.842Z,99310.56
2022-09-11T01:45:45.515Z,99306.16
2022-09-11T01:48:13.926Z,99290.91
2022-09-11T01:50:41.165Z,99292.56
2022-09-11T01:53:09.739Z,99292.87
2022-09-11T01:55:38.735Z,99290.34
2022-09-11T01:58:08.103Z,99283.69
2022-09-11T02:00:36.760Z,99283.38
2022-09-11T02:03:08.577Z,99278.91
2022-09-11T02:05:44.058Z,99284.09
2022-09-11T02:08:17.153Z,99288.78
2022-09-11T02:10:51.993Z,99291.87
2022-09-11T02:13:19.459Z,99286.75
2022-09-11T02:15:48.957Z,99296.44
2022-09-11T02:18:27.001Z,99299.28
2022-09-11T02:20:54.529Z,99298.03
2022-09-11T02:23:21.774Z,99297.16
2022-09-11T02:25:52.634Z,99291.63
2022-09-11T02:28:20.120Z,99286.28
2022-09-11T02:30:47.414Z,99287.28
2022-09-11T02:33:31.553Z,99279.91
2022-09-11T02:36:03.552Z,99287.88
2022-09-11T02:38:33.803Z,99289.41
2022-09-11T02:41:20.625Z,99288.25
2022-09-11T02:43:55.509Z,99285.81
2022-09-11T02:46:41.883Z,99286.00
2022-09-11T02:49:10.531Z,99290.78
2022-09-11T02:51:39.103Z,99285.37
2022-09-11T02:54:11.964Z,99288.44
2022-09-11T02:56:41.347Z,99283.69
2022-09-11T02:59:29.021Z,99283.69
2022-09-11T03:01:59.105Z,99283.75
2022-09-11T03:04:26.500Z,99294.25
2022-09-11T03:06:53.979Z,99299.66
2022-09-11T03:09:21.484Z,99296.44
2022-09-11T03:11:50.171Z,99294.56
2022-09-11T03:14:17.600Z,99297.91
2022-09-11T03:16:45.667Z,99295.56
2022-09-11T03:19:13.392Z,99296.78
2022-09-11T03:21:40.617Z,99294.25
2022-09-11T03:24:09.809Z,99286.56
2022-09-11T03:26:37.208Z,99284.69
2022-09-11T03:29:04.705Z,99293.56
2022-09-11T03:31:34.470Z,99289.19
2022-09-11T03:34:04.638Z,99293.47
2022-09-11T03:36:34.377Z,99291.69
2022-09-11T03:39:02.030Z,99295.56
2022-09-11T03:41:30.373Z,99286.09
2022-09-11T03:43:57.841Z,99289.59
2022-09-11T03:46:25.639Z,99293.16
2022-09-11T03:48:53.341Z,99292.28
2022-09-11T03:51:21.214Z,99291.19
2022-09-11T03:53:48.439Z,99294.09
2022-09-11T03:56:16.104Z,99305.69
2022-09-11T03:58:44.722Z,99313.81
2022-09-11T04:01:13.325Z,99298.03
2022-09-11T04:03:41.575Z,99300.72
2022-09-11T04:06:10.189Z,99307.87
2022-09-11T04:08:39.245Z,99304.12
2022-09-11T04:11:06.903Z,99312.25
2022-09-11T04:13:36.425Z,99307.84
2022-09-11T04:16:08.272Z,99314.59
2022-09-11T04:18:37.818Z,99314.41
2022-09-11T04:21:05.566Z,99317.38
2022-09-11T04:23:34.085Z,99317.84
2022-09-11T04:26:01.693Z,99319.16
2022-09-11T04:28:29.528Z,99319.75
2022-09-11T04:30:57.486Z,99319.19
2022-09-11T04:33:25.101Z,99313.22
2022-09-11T04:35:52.422Z,99314.44
2022-09-11T04:38:21.370Z,99318.81
2022-09-11T04:40:49.422Z,99319.00
2022-09-11T04:43:17.805Z,99325.41
2022-09-11T04:45:45.165Z,99316.03
2022-09-11T04:48:13.270Z,99318.91
2022-09-11T04:50:41.333Z,99319.28
2022-09-11T04:53:09.677Z,99319.12
2022-09-11T04:55:37.312Z,99322.22
2022-09-11T04:58:05.651Z,99315.00
2022-09-11T05:00:33.817Z,99318.16
2022-09-11T05:03:01.957Z,99316.97
2022-09-11T05:05:29.600Z,99313.50
2022-09-11T05:07:56.960Z,99309.25
2022-09-11T05:10:27.221Z,99317.03
2022-09-11T05:12:54.638Z,99313.41
2022-09-11T05:15:21.943Z,99317.53
2022-09-11T05:17:50.782Z,99310.50
2022-09-11T05:20:18.810Z,99310.38
2022-09-11T05:22:47.099Z,99327.63
2022-09-11T05:25:14.650Z,99332.50
2022-09-11T05:27:41.872Z,99329.09
2022-09-11T05:30:09.432Z,99342.31
2022-09-11T05:32:37.744Z,99335.06
2022-09-11T05:35:05.350Z,99342.47
2022-09-11T05:37:32.677Z,99334.19
2022-09-11T05:40:00.601Z,99344.03
2022-09-11T05:42:28.669Z,99347.66
2022-09-11T05:44:56.213Z,99349.94
2022-09-11T05:47:24.802Z,99345.59
2022-09-11T05:49:52.505Z,99343.44
2022-09-11T05:52:20.461Z,99345.47
2022-09-11T05:54:48.026Z,99347.22
2022-09-11T05:57:15.421Z,99359.22
2022-09-11T05:59:43.103Z,99360.81
2022-09-11T06:02:11.104Z,99358.63
2022-09-11T06:04:38.929Z,99359.31
2022-09-11T06:07:06.614Z,99363.34
2022-09-11T06:09:34.819Z,99357.34
2022-09-11T06:12:02.520Z,99368.00
2022-09-11T06:14:29.864Z,99370.41
2022-09-11T06:16:57.322Z,99365.44
2022-09-11T06:19:25.496Z,99370.16
2022-09-11T06:21:52.850Z,99367.94
2022-09-11T06:24:21.043Z,99368.66
2022-09-11T06:26:49.887Z,99381.53
2022-09-11T06:29:17.601Z,99370.41
2022-09-11T06:31:45.992Z,99372.12
2022-09-11T06:34:14.004Z,99368.13
2022-09-11T06:36:45.167Z,99362.44
2022-09-11T06:39:14.323Z,99360.75
2022-09-11T06:41:42.140Z,99361.28
2022-09-11T06:44:09.991Z,99358.94
2022-09-11T06:46:37.716Z,99358.59
2022-09-11T06:49:06.478Z,99345.66
2022-09-11T06:51:47.976Z,99354.72
2022-09-11T06:54:16.173Z,99358.72
2022-09-11T06:56:45.222Z,99358.66
2022-09-11T06:59:14.506Z,99356.78
2022-09-11T07:01:44.509Z,99360.06
2022-09-11T07:04:12.218Z,99360.16
2022-09-11T07:06:39.581Z,99358.28
2022-09-11T07:09:07.072Z,99354.63
2022-09-11T07:11:34.844Z,99352.84
2022-09-11T07:14:05.767Z,99346.69
2022-09-11T07:16:34.080Z,99346.28
2022-09-11T07:19:07.633Z,99341.16
2022-09-11T07:21:35.570Z,99338.34
2022-09-11T07:24:03.998Z,99335.44
2022-09-11T07:26:32.701Z,99341.59
2022-09-11T07:29:00.628Z,99334.25
2022-09-11T07:31:32.804Z,99327.31
2022-09-11T07:34:00.331Z,99321.97
2022-09-11T07:36:32.684Z,99326.28
2022-09-11T07:39:00.307Z,99328.22
2022-09-11T07:41:29.387Z,99328.19
2022-09-11T07:43:59.794Z,99332.28
2022-09-11T07:46:27.814Z,99324.47
2022-09-11T07:48:55.465Z,99329.53
2022-09-11T07:51:23.149Z,99329.66
2022-09-11T07:53:51.454Z,99335.28
2022-09-11T07:56:20.088Z,99336.34
2022-09-11T07:58:48.037Z,99336.72
2022-09-11T08:01:17.311Z,99334.78
2022-09-11T08:03:45.632Z,99337.87
2022-09-11T08:06:17.839Z,99346.41
2022-09-11T08:08:51.891Z,99344.06
2022-09-11T08:11:19.768Z,99347.28
2022-09-11T08:13:53.734Z,99345.72
2022-09-11T08:16:22.674Z,99336.94
2022-09-11T08:18:52.107Z,99345.06
2022-09-11T08:21:19.503Z,99337.91
2022-09-11T08:23:47.111Z,99346.16
2022-09-11T08:26:21.888Z,99342.19
2022-09-11T08:28:52.195Z,99341.81
2022-09-11T08:31:20.569Z,99344.13
2022-09-11T08:33:49.375Z,99337.69
2022-09-11T08:36:17.187Z,99334.00
2022-09-11T08:38:46.023Z,99334.00
2022-09-11T08:41:28.133Z,99336.06
2022-09-11T08:43:56.858Z,99339.16
2022-09-11T08:46:25.351Z,99335.22
2022-09-11T08:49:02.325Z,99342.09
2022-09-11T08:51:31.516Z,99333.88
2022-09-11T08:53:59.044Z,99335.19
2022-09-11T08:56:28.638Z,99336.22
2022-09-11T08:59:02.601Z,99339.09
2022-09-11T09:01:50.217Z,99333.38
2022-09-11T09:04:39.317Z,99341.62
2022-09-11T09:07:10.208Z,99333.50
2022-09-11T09:09:41.063Z,99337.31
2022-09-11T09:12:21.029Z,99328.91
2022-09-11T09:15:00.936Z,99327.94
2022-09-11T09:17:45.424Z,99330.72
2022-09-11T09:20:13.741Z,99334.19
2022-09-11T09:22:49.061Z,99338.72
2022-09-11T09:25:17.903Z,99337.75
2022-09-11T09:27:46.570Z,99339.78
2022-09-11T09:30:18.643Z,99333.34
2022-09-11T09:32:51.935Z,99335.22
2022-09-11T09:35:23.402Z,99332.91
2022-09-11T09:37:51.639Z,99337.69
2022-09-11T09:40:19.151Z,99336.56
2022-09-11T09:42:47.507Z,99336.84
2022-09-11T09:45:24.889Z,99336.34
2022-09-11T09:47:52.136Z,99323.63
2022-09-11T09:50:20.739Z,99332.41
2022-09-11T09:52:48.945Z,99324.31
2022-09-11T09:55:17.689Z,99321.38
2022-09-11T09:57:45.262Z,99326.22
2022-09-11T10:00:17.924Z,99328.00
2022-09-11T10:02:49.110Z,99324.94
2022-09-11T10:05:18.215Z,99333.09
2022-09-11T10:07:49.495Z,99337.97
2022-09-11T10:10:21.544Z,99341.72
2022-09-11T10:12:49.113Z,99329.97
2022-09-11T10:15:22.866Z,99330.81
2022-09-11T10:17:53.447Z,99333.72
2022-09-11T10:20:26.757Z,99334.97
2022-09-11T10:22:54.796Z,99329.87
2022-09-11T10:25:23.089Z,99333.50
2022-09-11T10:27:56.285Z,99334.59
2022-09-11T10:30:27.916Z,99334.16
2022-09-11T10:32:55.729Z,99336.19
2022-09-11T10:35:27.090Z,99327.81
2022-09-11T10:38:01.193Z,99326.75
2022-09-11T10:40:28.961Z,99331.59
2022-09-11T10:42:56.291Z,99332.13
2022-09-11T10:45:23.614Z,99326.31
2022-09-11T10:47:51.143Z,99324.06
2022-09-11T10:50:18.563Z,99331.97
2022-09-11T10:52:48.915Z,99319.09
2022-09-11T10:55:17.545Z,99309.94
2022-09-11T10:57:50.340Z,99299.91
2022-09-11T11:00:17.822Z,99296.41
2022-09-11T11:02:46.067Z,99295.94
2022-09-11T11:05:27.089Z,99302.47
2022-09-11T11:08:07.601Z,99299.75
2022-09-11T11:10:47.161Z,99302.66
2022-09-11T11:13:15.676Z,99294.47
2022-09-11T11:15:57.634Z,99292.00
2022-09-11T11:18:38.803Z,99289.69
2022-09-11T11:21:12.965Z,99294.72
2022-09-11T11:24:06.784Z,99297.69
2022-09-11T11:26:43.256Z,99289.19
2022-09-11T11:29:22.934Z,99295.97
2022-09-11T11:31:51.297Z,99289.25
2022-09-11T11:34:29.190Z,99284.56
2022-09-11T11:37:13.242Z,99281.16
2022-09-11T11:39:47.652Z,99282.56
2022-09-11T11:42:17.330Z,99292.22
2022-09-11T11:44:52.332Z,99287.78
2022-09-11T11:47:20.969Z,99291.13
2022-09-11T11:49:51.684Z,99285.50
2022-09-11T11:52:31.277Z,99282.72
2022-09-11T11:55:03.089Z,99286.94
2022-09-11T11:57:33.166Z,99291.53
2022-09-11T12:00:04.172Z,99282.75
2022-09-11T12:02:43.758Z,99297.88
2022-09-11T12:05:12.064Z,99292.84
2022-09-11T12:07:39.371Z,99296.22
2022-09-11T12:10:07.464Z,99290.97
2022-09-11T12:12:35.647Z,99294.28
2022-09-11T12:15:06.970Z,99300.28
2022-09-11T12:17:34.981Z,99295.91
2022-09-11T12:20:11.625Z,99305.38
2022-09-11T12:22:49.724Z,99306.09
2022-09-11T12:25:20.010Z,99312.06
2022-09-11T12:27:54.419Z,99316.13
2022-09-11T12:30:23.431Z,99314.97
2022-09-11T12:32:51.205Z,99306.66
2022-09-11T12:35:38.265Z,99296.06
2022-09-11T12:38:13.352Z,99286.25
2022-09-11T12:40:57.350Z,99283.25
2022-09-11T12:43:45.720Z,99294.53
2022-09-11T12:46:21.856Z,99300.31
2022-09-11T12:49:11.391Z,99297.47
2022-09-11T12:51:42.363Z,99305.91
2022-09-11T12:54:21.960Z,99296.25
2022-09-11T12:57:08.053Z,99301.06
2022-09-11T12:59:39.724Z,99299.97
2022-09-11T13:02:25.962Z,99301.03
2022-09-11T13:04:53.881Z,99293.94
2022-09-11T13:07:30.328Z,99292.97
2022-09-11T13:09:58.564Z,99292.16
2022-09-11T13:12:25.861Z,99298.09
2022-09-11T13:14:53.801Z,99292.25
2022-09-11T13:17:25.974Z,99290.06
2022-09-11T13:19:54.635Z,99292.03
2022-09-11T13:22:25.213Z,99282.78
2022-09-11T13:24:57.651Z,99282.66
2022-09-11T13:27:26.577Z,99279.44
2022-09-11T13:29:54.977Z,99279.47
2022-09-11T13:32:22.510Z,99276.63
2022-09-11T13:34:50.572Z,99275.06
2022-09-11T13:37:45.561Z,99270.81
2022-09-11T13:40:22.426Z,99272.25
2022-09-11T13:42:50.035Z,99271.19
2022-09-11T13:45:19.046Z,99265.66
2022-09-11T13:47:46.458Z,99267.28
2022-09-11T13:50:14.701Z,99257.03
2022-09-11T13:52:43.137Z,99260.84
2022-09-11T13:55:11.991Z,99259.34
2022-09-11T13:57:51.605Z,99268.81
2022-09-11T14:00:38.733Z,99264.03
2022-09-11T14:03:07.014Z,99254.63
2022-09-11T14:05:35.117Z,99258.75
2022-09-11T14:08:02.495Z,99248.81
2022-09-11T14:10:34.465Z,99238.91
2022-09-11T14:13:05.135Z,99242.56
2022-09-11T14:15:35.341Z,99240.03
2022-09-11T14:18:02.901Z,99235.56
2022-09-11T14:20:30.295Z,99227.69
2022-09-11T14:22:59.647Z,99225.03
2022-09-11T14:25:26.906Z,99223.25
2022-09-11T14:27:54.157Z,99209.81
2022-09-11T14:30:30.658Z,99210.06
2022-09-11T14:33:19.321Z,99210.88
2022-09-11T14:35:47.025Z,99211.06
2022-09-11T14:38:14.561Z,99212.78
2022-09-11T14:40:47.837Z,99214.63
2022-09-11T14:43:17.575Z,99213.59
2022-09-11T14:45:44.871Z,99214.69
2022-09-11T14:48:12.325Z,99211.72
2022-09-11T14:50:39.868Z,99213.41
2022-09-11T14:53:09.515Z,99215.09
2022-09-11T14:55:36.742Z,99211.09
2022-09-11T14:58:04.233Z,99216.56
2022-09-11T15:00:31.877Z,99207.94
2022-09-11T15:03:00.368Z,99214.44
2022-09-11T15:05:28.149Z,99207.72
2022-09-11T15:07:55.897Z,99216.66
2022-09-11T15:10:23.152Z,99212.09
2022-09-11T15:12:50.693Z,99221.78
2022-09-11T15:15:19.265Z,99221.50
2022-09-11T15:17:46.553Z,99214.50
2022-09-11T15:20:14.121Z,99213.00
2022-09-11T15:22:41.381Z,99213.81
2022-09-11T15:25:08.646Z,99209.63
2022-09-11T15:27:36.585Z,99212.34
2022-09-11T15:30:04.331Z,99220.06
2022-09-11T15:32:32.988Z,99221.38
2022-09-11T15:35:00.825Z,99221.78
2022-09-11T15:37:28.154Z,99216.75
2022-09-11T15:39:55.792Z,99221.59
2022-09-11T15:42:23.466Z,99231.78
2022-09-11T15:44:51.401Z,99224.03
2022-09-11T15:47:18.638Z,99226.38
2022-09-11T15:49:47.917Z,99228.66
2022-09-11T15:52:15.256Z,99227.69
2022-09-11T15:54:42.909Z,99231.06
2022-09-11T15:57:10.455Z,99226.63
2022-09-11T15:59:37.719Z,99227.06
2022-09-11T16:02:05.078Z,99229.06
2022-09-11T16:04:33.388Z,99221.38
2022-09-11T16:07:00.805Z,99228.31
2022-09-11T16:09:29.190Z,99225.13
2022-09-11T16:11:59.395Z,99224.28
2022-09-11T16:14:29.228Z,99222.41
2022-09-11T16:16:57.979Z,99230.03
2022-09-11T16:19:27.983Z,99239.63
2022-09-11T16:22:00.538Z,99233.22
2022-09-11T16:24:28.692Z,99237.75
2022-09-11T16:26:56.198Z,99239.50
2022-09-11T16:29:24.237Z,99241.22
2022-09-11T16:31:51.794Z,99250.59
2022-09-11T16:34:19.046Z,99244.34
2022-09-11T16:36:46.446Z,99255.50
2022-09-11T16:39:15.814Z,99241.09
2022-09-11T16:41:43.473Z,99248.44
2022-09-11T16:44:12.042Z,99253.47
2022-09-11T16:46:40.805Z,99252.97
2022-09-11T16:49:08.870Z,99251.19
2022-09-11T16:51:36.125Z,99251.00
2022-09-11T16:54:04.319Z,99246.09
2022-09-11T16:56:31.724Z,99246.91
2022-09-11T16:58:59.053Z,99252.44
2022-09-11T17:01:27.035Z,99248.06
2022-09-11T17:03:55.435Z,99253.91
2022-09-11T17:06:24.073Z,99247.25
2022-09-11T17:08:51.749Z,99256.94
2022-09-11T17:11:20.105Z,99257.19
2022-09-11T17:13:47.477Z,99254.59
2022-09-11T17:16:25.645Z,99251.47
2022-09-11T17:18:54.047Z,99257.91
2022-09-11T17:21:24.129Z,99254.81
2022-09-11T17:23:52.554Z,99253.19
2022-09-11T17:26:19.895Z,99262.63
2022-09-11T17:28:48.312Z,99265.72
2022-09-11T17:31:16.345Z,99260.28
2022-09-11T17:33:45.501Z,99266.41
2022-09-11T17:36:14.765Z,99267.03
2022-09-11T17:38:42.172Z,99274.59
2022-09-11T17:41:09.542Z,99278.09
2022-09-11T17:43:37.874Z,99280.47
2022-09-11T17:46:06.379Z,99281.44
2022-09-11T17:48:33.954Z,99284.41
2022-09-11T17:51:02.690Z,99282.69
2022-09-11T17:53:37.696Z,99293.22
2022-09-11T17:56:07.230Z,99293.84
2022-09-11T17:58:34.737Z,99286.97
2022-09-11T18:01:02.920Z,99286.19
2022-09-11T18:03:31.763Z,99295.16
2022-09-11T18:05:59.328Z,99295.06
2022-09-11T18:08:27.105Z,99297.75
2022-09-11T18:10:59.739Z,99305.44
2022-09-11T18:13:27.487Z,99296.88
2022-09-11T18:15:56.391Z,99289.09
2022-09-11T18:18:23.857Z,99297.94
2022-09-11T18:20:54.084Z,99304.28
2022-09-11T18:23:23.158Z,99296.25
2022-09-11T18:25:51.464Z,99297.94
2022-09-11T18:28:20.038Z,99300.69
2022-09-11T18:30:49.385Z,99305.28
2022-09-11T18:33:17.233Z,99301.69
2022-09-11T18:35:46.653Z,99301.84
2022-09-11T18:38:14.296Z,99293.97
2022-09-11T18:40:41.565Z,99299.50
2022-09-11T18:43:09.412Z,99292.81
2022-09-11T18:45:37.065Z,99292.19
2022-09-11T18:48:05.446Z,99293.75
2022-09-11T18:50:32.734Z,99300.75
2022-09-11T18:53:00.443Z,99292.37
2022-09-11T18:55:29.085Z,99294.03
2022-09-11T18:57:57.240Z,99299.97
2022-09-11T19:00:24.760Z,99303.16
2022-09-11T19:02:54.562Z,99301.22
2022-09-11T19:05:21.785Z,99296.84
2022-09-11T19:07:49.526Z,99312.38
2022-09-11T19:10:17.268Z,99308.37
2022-09-11T19:12:46.899Z,99308.78
2022-09-11T19:15:14.450Z,99311.59
2022-09-11T19:17:42.145Z,99313.47
2022-09-11T19:20:11.158Z,99302.97
2022-09-11T19:22:38.669Z,99306.56
2022-09-11T19:25:08.042Z,99308.16
2022-09-11T19:27:35.436Z,99314.91
2022-09-11T19:30:03.626Z,99309.53
2022-09-11T19:32:31.313Z,99314.09
2022-09-11T19:35:00.219Z,99306.19
2022-09-11T19:37:28.480Z,99307.47
2022-09-11T19:39:57.221Z,99308.16
2022-09-11T19:42:25.051Z,99309.69
2022-09-11T19:44:56.210Z,99306.72
2022-09-11T19:47:25.030Z,99312.41
2022-09-11T19:49:52.970Z,99318.00
2022-09-11T19:52:20.277Z,99317.41
2022-09-11T19:54:47.537Z,99315.22
2022-09-11T19:57:15.059Z,99311.31
2022-09-11T19:59:42.353Z,99318.62
2022-09-11T20:02:10.022Z,99317.59
2022-09-11T20:04:37.601Z,99318.53
2022-09-11T20:07:05.511Z,99321.63
2022-09-11T20:09:33.046Z,99327.84
2022-09-11T20:12:01.537Z,99329.59
2022-09-11T20:14:29.591Z,99323.97
2022-09-11T20:16:56.862Z,99318.44
2022-09-11T20:19:24.364Z,99323.88
2022-09-11T20:21:51.685Z,99320.31
2022-09-11T20:24:19.821Z,99314.03
2022-09-11T20:26:47.361Z,99318.00
2022-09-11T20:29:15.252Z,99326.41
2022-09-11T20:31:47.354Z,99333.72
2022-09-11T20:34:15.999Z,99332.50
2022-09-11T20:36:43.304Z,99332.88
2022-09-11T20:39:11.094Z,99333.38
2022-09-11T20:41:39.335Z,99341.19
2022-09-11T20:44:06.646Z,99341.03
2022-09-11T20:46:33.909Z,99351.09
2022-09-11T20:49:03.029Z,99352.84
2022-09-11T20:51:31.011Z,99346.22
2022-09-11T20:53:58.286Z,99352.97
2022-09-11T20:56:25.839Z,99348.44
2022-09-11T20:58:53.122Z,99354.25
2022-09-11T21:01:21.456Z,99354.34
2022-09-11T21:03:50.146Z,99345.00
2022-09-11T21:06:20.052Z,99353.41
2022-09-11T21:08:51.402Z,99359.69
2022-09-11T21:11:18.869Z,99347.88
2022-09-11T21:13:46.323Z,99362.13
2022-09-11T21:16:14.663Z,99354.50
2022-09-11T21:18:45.891Z,99355.84
2022-09-11T21:21:13.430Z,99355.66
2022-09-11T21:23:40.690Z,99353.03
2022-09-11T21:26:11.545Z,99362.47
2022-09-11T21:28:39.168Z,99364.28
2022-09-11T21:31:06.636Z,99364.47
2022-09-11T21:33:34.270Z,99359.78
2022-09-11T21:36:01.890Z,99363.94
2022-09-11T21:38:29.629Z,99356.31
2022-09-11T21:40:57.563Z,99360.72
2022-09-11T21:43:25.341Z,99357.72
2022-09-11T21:45:52.667Z,99359.06
2022-09-11T21:48:19.907Z,99363.19
2022-09-11T21:50:47.479Z,99357.53
2022-09-11T21:53:14.793Z,99363.47
2022-09-11T21:55:43.275Z,99368.63
2022-09-11T21:58:20.261Z,99367.09
2022-09-11T22:00:48.338Z,99370.97
2022-09-11T22:03:16.713Z,99368.91
2022-09-11T22:05:45.087Z,99364.97
2022-09-11T22:08:13.242Z,99371.59
2022-09-11T22:10:47.814Z,99363.63
2022-09-11T22:13:15.480Z,99362.75
2022-09-11T22:15:43.719Z,99364.97
2022-09-11T22:18:11.016Z,99366.56
2022-09-11T22:20:38.537Z,99366.50
2022-09-11T22:23:06.176Z,99370.22
2022-09-11T22:25:36.662Z,99368.13
2022-09-11T22:28:04.336Z,99362.44
2022-09-11T22:30:32.119Z,99355.97
2022-09-11T22:33:00.038Z,99356.41
2022-09-11T22:35:28.850Z,99358.75
2022-09-11T22:37:56.393Z,99365.69
2022-09-11T22:40:23.754Z,99372.41
2022-09-11T22:42:51.664Z,99375.66
2022-09-11T22:45:23.233Z,99375.25
2022-09-11T22:47:50.469Z,99376.44
2022-09-11T22:50:17.909Z,99389.31
2022-09-11T22:52:45.485Z,99387.00
2022-09-11T22:55:12.713Z,99387.53
2022-09-11T22:57:40.118Z,99384.16
2022-09-11T23:00:10.326Z,99387.56
2022-09-11T23:02:38.120Z,99383.47
2022-09-11T23:05:24.312Z,99384.84
2022-09-11T23:07:52.191Z,99383.97
2022-09-11T23:10:23.729Z,99391.22
2022-09-11T23:12:51.654Z,99391.06
2022-09-11T23:15:19.305Z,99378.78
2022-09-11T23:17:46.962Z,99381.75
2022-09-11T23:20:14.210Z,99378.69
2022-09-11T23:22:41.807Z,99380.78
2022-09-11T23:25:09.281Z,99379.59
2022-09-11T23:27:36.547Z,99372.91
2022-09-11T23:30:04.455Z,99375.69
2022-09-11T23:32:31.745Z,99370.63
2022-09-11T23:34:59.013Z,99383.47
2022-09-11T23:37:26.574Z,99367.34
2022-09-11T23:39:53.828Z,99375.94
2022-09-11T23:42:21.102Z,99383.28
2022-09-11T23:44:48.576Z,99377.72
2022-09-11T23:47:15.992Z,99366.28
2022-09-11T23:49:43.708Z,99377.97
2022-09-11T23:52:11.167Z,99368.84
2022-09-11T23:54:38.388Z,99367.91
2022-09-11T23:57:05.872Z,99369.50
2022-09-11T23:59:36.095Z,99373.19
